• Join FlightAware (Why Join?)
  • Login
  • US Flag 
03:16PM EST


 

Airport Tracker/Info


-or-


 

Live Flight TrackerFlight Track Log ✈ EVA772 ✈ 21-Jul-2014 ✈ RCSS / TSA - ZSSS / SHA

Flight Track Log - Related Links

Times and Time Zones

All times are in EDT time to prevent confusion due to time zone crossing. See the EVA772 flight status page for this flight to view local times or setup timezone preferences in your user account.

Time Position Orientation Groundspeed Altitude Reporting Facility
EDT Latitude Longitude Course Direction KTS MPH feet Rate Location/Type
02:43AM 25.3819 121.5905 358° North  Level Estimated
02:44AM 25.4761 121.5866 358° North  Level Estimated
02:45AM 25.5704 121.5827 358° North  Level Estimated
02:46AM 25.6646 121.5788 358° North  Level Estimated
02:47AM 25.7497 121.5752 358° North  Level Estimated
02:48AM 25.8348 121.5717 358° North  Level Estimated
02:49AM 25.9198 121.5681 358° North  Level Estimated
02:50AM 26.0049 121.5646 358° North  Level Estimated
02:51AM 26.0900 121.5610 358° North  Level Estimated
02:52AM 26.1751 121.5574 358° North  Level Estimated
02:53AM 26.2602 121.5539 358° North  Level Estimated
02:54AM 26.3452 121.5503 358° North  Level Estimated
02:55AM 26.4303 121.5467 358° North  Level Estimated
02:56AM 26.5154 121.5431 358° North  Level Estimated
02:57AM 26.6005 121.5395 358° North  Level Estimated
02:58AM 26.6856 121.5359 358° North  Level Estimated
02:59AM 26.7706 121.5323 358° North  Level Estimated
03:00AM 26.8557 121.5287 358° North  Level Estimated
03:01AM 26.9408 121.5250 358° North  Level Estimated
03:02AM 27.0259 121.5214 358° North  Level Estimated
03:03AM 27.1109 121.5178 358° North  Level Estimated
03:04AM 27.1960 121.5142 358° North  Level Estimated
03:05AM 27.2811 121.5105 358° North  Level Estimated
03:06AM 27.3662 121.5069 358° North  Level Estimated
03:07AM 27.4513 121.5032 358° North  Level Estimated
03:08AM 27.5363 121.4996 358° North  Level Estimated
03:09AM 27.6214 121.4959 358° North  Level Estimated
03:10AM 27.7065 121.4922 358° North  Level Estimated
03:11AM 27.7916 121.4885 358° North  Level Estimated
03:12AM 27.8766 121.4849 358° North  Level Estimated
03:13AM 27.9617 121.4812 358° North  Level Estimated
03:14AM 28.0468 121.4775 358° North  Level Estimated
03:15AM 28.1319 121.4738 358° North  Level Estimated
03:16AM 28.2169 121.4701 358° North  Level Estimated
03:17AM 28.3020 121.4664 358° North  Level Estimated
03:18AM 28.3871 121.4627 358° North  Level Estimated
03:19AM 28.4722 121.4589 358° North  Level Estimated
03:20AM 28.5573 121.4552 358° North  Level Estimated
03:21AM 28.6423 121.4515 358° North  Level Estimated
03:22AM 28.7274 121.4477 358° North  Level Estimated
03:23AM 28.8125 121.4440 358° North  Level Estimated
03:24AM 28.8976 121.4402 358° North  Level Estimated
03:25AM 28.9826 121.4365 358° North  Level Estimated
03:26AM 29.0677 121.4327 358° North  Level Estimated
03:27AM 29.1528 121.4289 358° North  Level Estimated
03:28AM 29.2379 121.4252 358° North  Level Estimated
03:29AM 29.3229 121.4214 358° North  Level Estimated
03:30AM 29.4080 121.4176 358° North  Level Estimated
03:31AM 29.4931 121.4138 358° North  Level Estimated
03:32AM 29.5782 121.4100 358° North  Level Estimated
03:33AM 29.6632 121.4062 358° North  Level Estimated
03:34AM 29.7483 121.4024 358° North  Level Estimated
03:35AM 29.8334 121.3985 358° North  Level Estimated
03:36AM 29.9185 121.3947 358° North  Level Estimated
03:37AM 30.0035 121.3909 358° North  Level Estimated
03:38AM 30.0886 121.3870 358° North  Level Estimated
03:39AM 30.1737 121.3832 358° North  Level Estimated
03:40AM 30.2588 121.3793 358° North  Level Estimated
03:40AM 29.7174 120.8889 28° Northeast 342 394 20,700  Level FlightAware ADS-B (ZBAA / PEK)
03:40AM 29.7426 120.9119 49° Northeast 342 394 20,700  Level FlightAware ADS-B
03:41AM 29.7677 120.9523 55° Northeast 328 377 20,700 -240 Level FlightAware ADS-B
03:41AM 29.7918 120.9919 55° Northeast 314 361 20,500 -840 Descending FlightAware ADS-B
03:42AM 29.8429 121.0773 56° Northeast 306 352 19,500 -1,020 Descending FlightAware ADS-B
03:43AM 29.8662 121.1175 56° Northeast 302 348 19,000 -1,080 Descending FlightAware ADS-B
03:44AM 29.9011 121.1777 56° Northeast 298 343 18,200 -1,080 Descending FlightAware ADS-B
03:44AM 29.9234 121.2161 56° Northeast 293 337 17,700 -960 Descending FlightAware ADS-B
03:45AM 29.9601 121.2648 21° North 289 333 17,100 -720 Descending FlightAware ADS-B
03:46AM 30.0240 121.2601 352° North 293 337 16,700 -300 Descending FlightAware ADS-B
03:46AM 30.0776 121.2516 352° North 294 338 16,700  Level FlightAware ADS-B
03:47AM 30.1232 121.2440 352° North 294 338 16,700  Level FlightAware ADS-B
03:47AM 30.1668 121.2367 352° North 293 337 16,700  Level FlightAware ADS-B (ZBAA / PEK)
03:48AM 30.2175 121.2281 352° North 293 337 16,700 -300 Level FlightAware ADS-B
03:48AM 30.2576 121.2221 North 293 337 16,400 -840 Descending FlightAware ADS-B
03:49AM 30.3190 121.2295 North 288 331 15,700 -960 Descending FlightAware ADS-B
03:50AM 30.3806 121.2376 North 286 329 15,000 -1,020 Descending FlightAware ADS-B
03:51AM 30.4336 121.2446 North 285 328 14,300 -1,080 Descending FlightAware ADS-B (ZBAA / PEK)
03:51AM 30.4869 121.2518 North 280 322 13,600 -1,020 Descending FlightAware ADS-B (ZBAA / PEK)
03:52AM 30.5380 121.2596 North 282 325 13,000 -960 Descending FlightAware ADS-B (ZBAA / PEK)
03:53AM 30.5783 121.2654 North 280 322 12,500 -1,020 Descending FlightAware ADS-B
03:53AM 30.6178 121.2708 North 278 320 12,000 -1,080 Descending FlightAware ADS-B (ZBAA / PEK)
03:54AM 30.6641 121.2771 North 278 320 11,300 -1,080 Descending FlightAware ADS-B (ZBAA / PEK)
03:54AM 30.7108 121.2836 North 275 316 10,700 -960 Descending FlightAware ADS-B
03:55AM 30.7664 121.2914 North 272 313 10,000 -780 Descending FlightAware ADS-B
03:55AM 30.7933 121.2952 North 270 311 9,900 -480 Descending FlightAware ADS-B (ZBAA / PEK)
03:56AM 30.8201 121.2990 North 269 310 9,700 -600 Descending FlightAware ADS-B (ZBAA / PEK)
03:56AM 30.8415 121.3020 North 267 307 9,500 -480 Descending FlightAware ADS-B
03:57AM 30.8799 121.3074 North 268 308 9,300 -420 Descending FlightAware ADS-B
03:57AM 30.8999 121.3102 North 268 308 9,200 -720 Descending FlightAware ADS-B
03:57AM 30.9364 121.3154 North 268 308 8,800 -840 Descending FlightAware ADS-B
03:58AM 30.9555 121.3181 North 268 308 8,600 -1,020 Descending FlightAware ADS-B
03:58AM 30.9749 121.3207 North 267 307 8,300 -720 Descending FlightAware ADS-B
03:58AM 31.0096 121.3256 North 263 303 8,100 -300 Descending FlightAware ADS-B
03:58AM 31.0258 121.3279 North 257 296 8,100  Level FlightAware ADS-B
03:59AM 31.0428 121.3303 North 256 295 8,100  Level FlightAware ADS-B
03:59AM 31.0742 121.3347 North 254 292 8,100  Level FlightAware ADS-B (ZSSS / SHA)
03:59AM 31.0941 121.3376 North 254 292 8,100  Level FlightAware ADS-B (ZSSS / SHA)
03:59AM 31.0428 121.3303 North 255 293 8,100  Level FlightAware ADS-B
04:00AM 31.1146 121.3393 359° North 254 292 8,100 -360 Level FlightAware ADS-B (ZSSS / SHA)
04:00AM 31.1165 121.3390 North 254 292 8,000 -1,200 Descending FlightAware ADS-B
04:00AM 31.1207 121.3381 349° North 255 293 8,000 -780 Level FlightAware ADS-B (ZSSS / SHA)
04:00AM 31.1270 121.3355 342° North 256 295 7,900 -1,200 Descending FlightAware ADS-B (ZSSS / SHA)
04:00AM 31.1307 121.3337 337° Northwest 256 295 7,800 -900 Descending FlightAware ADS-B (ZSSS / SHA)
04:00AM 31.1334 121.3324 335° Northwest 256 295 7,800 -1,200 Level FlightAware ADS-B
04:00AM 31.1480 121.3239 334° Northwest 257 296 7,500 -1,140 Descending FlightAware ADS-B (ZSSS / SHA)
04:00AM 31.1504 121.3226 334° Northwest 258 297 7,500 -1,140 Level FlightAware ADS-B
04:00AM 31.1642 121.3148 334° Northwest 258 297 7,200 -1,320 Descending FlightAware ADS-B (ZSSS / SHA)
04:01AM 31.1647 121.3144 334° Northwest 259 298 7,200 -960 Level FlightAware ADS-B
04:01AM 31.1794 121.3060 334° Northwest 257 296 7,000 -780 Descending FlightAware ADS-B (ZSSS / SHA)
04:01AM 31.1815 121.3048 334° Northwest 257 296 7,000 -1,140 Level FlightAware ADS-B
04:01AM 31.1958 121.2968 335° Northwest 255 293 6,700 -1,200 Descending FlightAware ADS-B (ZSSS / SHA)
04:01AM 31.2111 121.2880 335° Northwest 253 291 6,500 -840 Descending FlightAware ADS-B (ZSSS / SHA)
04:01AM 31.2277 121.2786 335° Northwest 251 289 6,300 -720 Descending FlightAware ADS-B (ZSSS / SHA)
04:01AM 31.2286 121.2781 334° Northwest 252 290 6,300 -900 Level FlightAware ADS-B
04:02AM 31.2423 121.2704 334° Northwest 250 288 6,100 -1,140 Descending FlightAware ADS-B (ZSSS / SHA)
04:02AM 31.2286 121.2781 334° Northwest 250 288 6,000 -1,500 Descending FlightAware ADS-B
04:02AM 31.2581 121.2614 335° Northwest 247 284 5,700 -1,560 Descending FlightAware ADS-B (ZSSS / SHA)
04:02AM 31.2744 121.2522 334° Northwest 247 284 5,300 -1,620 Descending FlightAware ADS-B (ZSSS / SHA)
04:02AM 31.2891 121.2439 335° Northwest 247 284 4,900 -1,380 Descending FlightAware ADS-B (ZSSS / SHA)
04:03AM 31.3018 121.2368 335° Northwest 245 282 4,600 -1,500 Descending FlightAware ADS-B (ZSSS / SHA)
04:03AM 31.3192 121.2277 339° North 244 281 4,200 -1,680 Descending FlightAware ADS-B (ZSSS / SHA)
04:03AM 31.3261 121.2258 350° North 246 283 4,100 -1,200 Descending FlightAware ADS-B (ZSSS / SHA)
04:03AM 31.3315 121.2257 359° North 248 285 4,000 -1,140 Descending FlightAware ADS-B (ZSSS / SHA)
04:03AM 31.3357 121.2264 North 248 285 3,900 -1,800 Descending FlightAware ADS-B (ZSSS / SHA)
04:04AM 31.3563 121.2423 52° Northeast 243 280 3,200 -1,680 Descending FlightAware ADS-B (ZSSL)
04:04AM 31.3580 121.2458 58° Northeast 241 277 3,200 -1,500 Level FlightAware ADS-B (ZSSL)
04:04AM 31.3601 121.2513 68° East 238 274 3,000 -1,740 Descending FlightAware ADS-B (ZSSS / SHA)
04:04AM 31.3611 121.2555 68° East 238 274 3,000 -780 Level FlightAware ADS-B (ZSSS / SHA)
04:05AM 31.3303 121.3279 150° Southeast 183 211 2,000 -780 Descending FlightAware ADS-B (ZSSS / SHA)
04:05AM 31.3268 121.3294 160° South 179 206 2,000  Level FlightAware ADS-B (ZSSS / SHA)
04:05AM 31.3246 121.3298 169° South 177 204 2,000  Level FlightAware ADS-B (ZSSS / SHA)
04:05AM 31.3115 121.3303 178° South 168 193 2,000 -420 Level FlightAware ADS-B (ZSSS / SHA)
04:06AM 31.2985 121.3308 177° South 169 194 1,800 -840 Descending FlightAware ADS-B (ZSSS / SHA)
04:06AM 31.2887 121.3314 177° South 159 183 1,600 -960 Descending FlightAware ADS-B (ZSSS / SHA)
04:06AM 31.2850 121.3316 179° South 171 197 1,500 -900 Descending FlightAware ADS-B (ZSSL)
04:06AM 31.2743 121.3321 176° South 145 167 1,300 -780 Descending FlightAware ADS-B (ZSSS / SHA)
04:07AM 31.2647 121.3327 177° South 136 157 1,100 -600 Descending FlightAware ADS-B (ZSSL)
04:07AM 31.2561 121.3331 177° South 137 158 1,000 -660 Descending FlightAware ADS-B (ZSSS / SHA)
04:07AM 31.2448 121.3337 177° South 134 154 800 -600 Descending FlightAware ADS-B (ZSSS / SHA)
04:07AM 31.2361 121.3342 177° South 133 153 700 -600 Descending FlightAware ADS-B (ZSSS / SHA)
04:08AM 31.2195 121.3351 177° South 134 154 400 -720 Descending FlightAware ADS-B (ZSSS / SHA)
04:10AM 31.1979 121.3363 177° South  Level Estimated